createdAt,value
2023-01-01T00:02:04.445Z,504.97
2023-01-01T00:04:32.591Z,473.53
2023-01-01T00:06:59.269Z,476.40
2023-01-01T00:09:44.650Z,485.07
2023-01-01T00:12:11.686Z,505.83
2023-01-01T00:14:39.389Z,506.17
2023-01-01T00:17:06.077Z,496.47
2023-01-01T00:19:32.718Z,498.17
2023-01-01T00:22:02.132Z,447.67
2023-01-01T00:24:36.656Z,430.20
2023-01-01T00:27:03.342Z,416.53
2023-01-01T00:29:30.079Z,426.53
2023-01-01T00:31:56.871Z,381.97
2023-01-01T00:34:23.574Z,346.33
2023-01-01T00:36:50.202Z,369.30
2023-01-01T00:39:17.106Z,392.20
2023-01-01T00:41:43.914Z,373.77
2023-01-01T00:44:10.616Z,355.93
2023-01-01T00:46:37.278Z,308.77
2023-01-01T00:49:04.029Z,208.23
2023-01-01T00:51:36.717Z,129.13
2023-01-01T00:54:03.897Z,107.87
2023-01-01T00:56:30.562Z,99.77
2023-01-01T00:59:01.027Z,125.77
2023-01-01T01:01:28.415Z,138.10
2023-01-01T01:03:55.279Z,146.43
2023-01-01T01:06:22.431Z,222.40
2023-01-01T01:08:49.104Z,239.73
2023-01-01T01:11:23.308Z,271.57
2023-01-01T01:13:52.342Z,278.10
2023-01-01T01:16:21.882Z,308.23
2023-01-01T01:18:51.909Z,289.77
2023-01-01T01:21:20.081Z,199.30
2023-01-01T01:23:47.215Z,229.70
2023-01-01T01:26:16.927Z,239.07
2023-01-01T01:28:49.350Z,263.00
2023-01-01T01:31:18.294Z,236.30
2023-01-01T01:33:46.705Z,176.50
2023-01-01T01:36:14.373Z,177.00
2023-01-01T01:38:41.733Z,203.03
2023-01-01T01:41:08.677Z,223.73
2023-01-01T01:43:35.324Z,244.13
2023-01-01T01:46:06.185Z,209.10
2023-01-01T01:48:39.597Z,216.67
2023-01-01T01:51:07.186Z,167.30
2023-01-01T01:53:37.806Z,170.83
2023-01-01T01:56:14.816Z,159.40
2023-01-01T01:58:41.730Z,141.10
2023-01-01T02:01:08.792Z,148.67
2023-01-01T02:03:55.536Z,179.57
2023-01-01T02:06:22.307Z,196.50
2023-01-01T02:08:50.982Z,212.77
2023-01-01T02:11:21.922Z,183.40
2023-01-01T02:13:49.740Z,167.87
2023-01-01T02:16:47.572Z,188.97
2023-01-01T02:19:43.990Z,179.80
2023-01-01T02:22:18.779Z,184.27
2023-01-01T02:25:18.226Z,173.33
2023-01-01T02:27:54.359Z,162.93
2023-01-01T02:30:21.239Z,174.00
2023-01-01T02:32:54.190Z,180.83
2023-01-01T02:35:34.808Z,170.27
2023-01-01T02:38:16.558Z,192.03
2023-01-01T02:40:47.705Z,194.80
2023-01-01T02:45:39.876Z,217.60
2023-01-01T02:48:27.933Z,227.03
2023-01-01T02:50:57.405Z,224.20
2023-01-01T02:53:36.063Z,231.13
2023-01-01T02:56:22.319Z,221.90
2023-01-01T02:59:34.821Z,221.57
2023-01-01T03:02:36.753Z,209.87
2023-01-01T03:05:24.775Z,209.20
2023-01-01T03:08:14.618Z,199.73
2023-01-01T03:11:07.566Z,171.10
2023-01-01T03:13:46.859Z,154.23
2023-01-01T03:16:36.540Z,173.80
2023-01-01T03:19:18.391Z,165.37
2023-01-01T03:21:53.918Z,161.07
2023-01-01T03:24:26.174Z,164.23
2023-01-01T03:26:58.256Z,154.77
2023-01-01T03:29:29.105Z,151.17
2023-01-01T03:31:58.691Z,145.20
2023-01-01T03:34:33.998Z,155.77
2023-01-01T03:37:06.232Z,169.53
2023-01-01T03:39:43.213Z,169.37
2023-01-01T03:42:31.873Z,170.80
2023-01-01T03:45:01.662Z,153.43
2023-01-01T03:47:29.934Z,160.63
2023-01-01T03:49:58.014Z,163.33
2023-01-01T03:52:30.438Z,162.43
2023-01-01T03:55:06.427Z,157.23
2023-01-01T03:57:48.191Z,160.70
2023-01-01T04:00:21.547Z,161.10
2023-01-01T04:03:08.303Z,161.37
2023-01-01T04:05:40.755Z,157.17
2023-01-01T04:08:08.481Z,156.90
2023-01-01T04:10:39.477Z,151.73
2023-01-01T04:13:06.907Z,156.00
2023-01-01T04:15:35.876Z,157.60
2023-01-01T04:18:03.415Z,150.87
2023-01-01T04:20:30.514Z,147.80
2023-01-01T04:22:58.734Z,148.77
2023-01-01T04:25:26.233Z,137.83
2023-01-01T04:27:52.968Z,142.17
2023-01-01T04:30:19.857Z,134.43
2023-01-01T04:32:46.570Z,123.37
2023-01-01T04:35:14.880Z,114.93
2023-01-01T04:37:43.383Z,100.07
2023-01-01T04:40:11.514Z,95.97
2023-01-01T04:42:38.349Z,99.23
2023-01-01T04:45:05.864Z,90.37
2023-01-01T04:47:32.666Z,91.83
2023-01-01T04:49:59.345Z,93.07
2023-01-01T04:52:25.973Z,93.10
2023-01-01T04:54:52.686Z,92.87
2023-01-01T04:57:19.392Z,92.60
2023-01-01T04:59:46.101Z,89.83
2023-01-01T05:02:12.917Z,80.30
2023-01-01T05:04:39.697Z,87.10
2023-01-01T05:07:06.359Z,91.73
2023-01-01T05:09:33.031Z,76.40
2023-01-01T05:11:59.846Z,74.57
2023-01-01T05:14:26.495Z,69.97
2023-01-01T05:16:53.223Z,77.87
2023-01-01T05:19:20.039Z,73.47
2023-01-01T05:21:46.851Z,72.07
2023-01-01T05:24:13.666Z,72.70
2023-01-01T05:26:45.119Z,78.40
2023-01-01T05:29:16.696Z,79.87
2023-01-01T05:31:45.218Z,78.03
2023-01-01T05:34:12.367Z,70.27
2023-01-01T05:36:39.699Z,66.33
2023-01-01T05:39:12.027Z,71.63
2023-01-01T05:41:39.268Z,62.60
2023-01-01T05:44:07.360Z,58.27
2023-01-01T05:46:34.630Z,58.97
2023-01-01T05:49:01.423Z,62.47
2023-01-01T05:51:29.816Z,69.80
2023-01-01T05:53:57.197Z,68.67
2023-01-01T05:56:24.394Z,69.00
2023-01-01T05:58:51.065Z,69.90
2023-01-01T06:01:26.290Z,77.37
2023-01-01T06:03:55.059Z,64.40
2023-01-01T06:06:24.813Z,59.90
2023-01-01T06:08:53.527Z,52.87
2023-01-01T06:11:20.905Z,50.97
2023-01-01T06:13:48.037Z,48.07
2023-01-01T06:16:14.954Z,45.77
2023-01-01T06:18:41.693Z,40.80
2023-01-01T06:21:14.810Z,38.93
2023-01-01T06:23:41.974Z,34.10
2023-01-01T06:26:20.789Z,32.93
2023-01-01T06:28:48.377Z,33.50
2023-01-01T06:31:17.465Z,31.40
2023-01-01T06:33:44.252Z,28.90
2023-01-01T06:36:13.456Z,28.80
2023-01-01T06:38:42.492Z,29.03
2023-01-01T06:41:13.007Z,26.17
2023-01-01T06:43:39.945Z,26.00
2023-01-01T06:46:29.640Z,24.10
2023-01-01T06:49:02.731Z,25.10
2023-01-01T06:51:36.606Z,23.77
2023-01-01T06:54:04.712Z,23.07
2023-01-01T06:56:32.162Z,22.60
2023-01-01T06:58:59.347Z,22.43
2023-01-01T07:01:31.637Z,21.83
2023-01-01T07:04:01.075Z,21.00
2023-01-01T07:06:29.898Z,21.93
2023-01-01T07:08:56.913Z,21.60
2023-01-01T07:11:24.312Z,19.70
2023-01-01T07:13:50.977Z,19.80
2023-01-01T07:16:18.243Z,18.37
2023-01-01T07:18:46.170Z,18.90
2023-01-01T07:21:34.354Z,17.70
2023-01-01T07:24:03.285Z,18.53
2023-01-01T07:26:31.991Z,16.67
2023-01-01T07:29:06.217Z,17.73
2023-01-01T07:31:38.223Z,17.03
2023-01-01T07:34:11.046Z,16.07
2023-01-01T07:36:38.241Z,16.90
2023-01-01T07:39:06.008Z,15.60
2023-01-01T07:41:32.672Z,14.73
2023-01-01T07:43:59.537Z,13.87
2023-01-01T07:46:26.438Z,13.90
2023-01-01T07:48:53.386Z,12.23
2023-01-01T07:51:20.095Z,13.43
2023-01-01T07:53:46.885Z,12.73
2023-01-01T07:56:13.637Z,12.20
2023-01-01T07:58:41.483Z,12.43
2023-01-01T08:01:12.130Z,12.20
2023-01-01T08:03:39.321Z,12.17
2023-01-01T08:06:08.883Z,10.73
2023-01-01T08:08:35.627Z,11.87
2023-01-01T08:11:04.009Z,11.50
2023-01-01T08:13:31.175Z,10.53
2023-01-01T08:15:58.774Z,11.47
2023-01-01T08:18:25.771Z,11.90
2023-01-01T08:20:52.546Z,10.83
2023-01-01T08:23:19.329Z,10.97
2023-01-01T08:25:45.987Z,10.60
2023-01-01T08:28:12.642Z,10.93
2023-01-01T08:30:39.448Z,11.30
2023-01-01T08:33:06.121Z,10.77
2023-01-01T08:35:33.973Z,10.77
2023-01-01T08:38:00.642Z,11.33
2023-01-01T08:40:27.358Z,10.33
2023-01-01T08:42:54.099Z,10.47
2023-01-01T08:45:20.798Z,12.30
2023-01-01T08:47:47.475Z,13.20
2023-01-01T08:50:14.287Z,13.30
2023-01-01T08:52:40.975Z,12.53
2023-01-01T08:55:08.010Z,10.60
2023-01-01T08:57:34.734Z,11.80
2023-01-01T09:00:01.556Z,11.30
2023-01-01T09:02:28.395Z,12.20
2023-01-01T09:04:55.232Z,12.17
2023-01-01T09:07:21.884Z,10.73
2023-01-01T09:09:48.592Z,11.63
2023-01-01T09:12:16.972Z,12.53
2023-01-01T09:14:46.640Z,12.00
2023-01-01T09:17:13.415Z,11.13
2023-01-01T09:19:40.298Z,12.00
2023-01-01T09:22:10.587Z,10.00
2023-01-01T09:24:37.282Z,10.10
2023-01-01T09:27:04.124Z,11.93
2023-01-01T09:29:31.114Z,12.13
2023-01-01T09:31:57.849Z,11.00
2023-01-01T09:34:24.670Z,12.23
2023-01-01T09:36:51.381Z,11.17
2023-01-01T09:39:18.135Z,13.80
2023-01-01T09:42:07.137Z,13.90
2023-01-01T09:44:57.347Z,21.57
2023-01-01T09:47:53.450Z,18.53
2023-01-01T09:50:29.650Z,17.00
2023-01-01T09:53:12.417Z,12.17
2023-01-01T09:55:53.292Z,10.87
2023-01-01T09:58:37.999Z,9.10
2023-01-01T10:01:31.365Z,8.73
2023-01-01T10:04:22.440Z,9.97
2023-01-01T10:07:03.735Z,8.93
2023-01-01T10:09:51.513Z,9.57
2023-01-01T10:12:37.118Z,10.83
2023-01-01T10:15:18.561Z,9.17
2023-01-01T10:17:48.316Z,10.53
2023-01-01T10:20:29.559Z,10.87
2023-01-01T10:23:18.799Z,10.00
2023-01-01T10:25:45.571Z,10.87
2023-01-01T10:28:27.399Z,10.70
2023-01-01T10:31:10.887Z,10.40
2023-01-01T10:33:37.582Z,9.93
2023-01-01T10:36:04.948Z,10.97
2023-01-01T10:38:37.125Z,10.43
2023-01-01T10:41:07.521Z,11.50
2023-01-01T10:43:34.182Z,11.00
2023-01-01T10:46:02.708Z,11.10
2023-01-01T10:48:31.417Z,11.47
2023-01-01T10:51:04.146Z,11.83
2023-01-01T10:53:36.154Z,11.63
2023-01-01T10:56:13.591Z,10.67
2023-01-01T10:58:55.174Z,10.40
2023-01-01T11:01:25.018Z,11.90
2023-01-01T11:04:01.775Z,11.53
2023-01-01T11:06:34.966Z,12.23
2023-01-01T11:09:24.272Z,12.50
2023-01-01T11:12:05.394Z,12.77
2023-01-01T11:14:38.972Z,12.70
2023-01-01T11:17:07.131Z,12.80
2023-01-01T11:19:36.885Z,12.70
2023-01-01T11:22:05.491Z,13.37
2023-01-01T11:24:36.252Z,13.20
2023-01-01T11:27:24.671Z,14.27
2023-01-01T11:29:54.718Z,12.87
2023-01-01T11:32:34.558Z,13.77
2023-01-01T11:35:06.457Z,11.93
2023-01-01T11:37:38.714Z,12.07
2023-01-01T11:40:14.989Z,12.27
2023-01-01T11:42:47.271Z,11.50
2023-01-01T11:45:37.994Z,10.93
2023-01-01T11:48:14.164Z,11.13
2023-01-01T11:50:53.621Z,10.03
2023-01-01T11:53:24.347Z,11.73
2023-01-01T11:56:06.415Z,11.43
2023-01-01T11:59:02.730Z,10.97
2023-01-01T12:01:52.483Z,10.37
2023-01-01T12:04:28.278Z,10.10
2023-01-01T12:07:06.196Z,7.33
2023-01-01T12:09:51.488Z,7.90
2023-01-01T12:12:33.379Z,8.27
2023-01-01T12:15:11.130Z,8.80
2023-01-01T12:17:44.488Z,8.77
2023-01-01T12:20:24.807Z,9.27
2023-01-01T12:22:52.375Z,8.77
2023-01-01T12:25:20.306Z,9.43
2023-01-01T12:28:11.931Z,8.90
2023-01-01T12:31:11.492Z,8.13
2023-01-01T12:34:05.432Z,8.67
2023-01-01T12:36:41.139Z,8.03
2023-01-01T12:39:26.891Z,6.73
2023-01-01T12:42:22.297Z,7.60
2023-01-01T12:45:12.959Z,5.63
2023-01-01T12:48:03.805Z,6.40
2023-01-01T12:50:51.407Z,6.10
2023-01-01T12:53:45.929Z,6.80
2023-01-01T12:56:23.484Z,7.00
2023-01-01T12:59:03.244Z,5.87
2023-01-01T13:01:35.683Z,5.80
2023-01-01T13:04:12.619Z,5.47
2023-01-01T13:07:03.729Z,5.77
2023-01-01T13:09:35.317Z,4.70
2023-01-01T13:12:05.350Z,5.80
2023-01-01T13:14:41.685Z,5.93
2023-01-01T13:17:22.691Z,6.13
2023-01-01T13:19:55.678Z,6.00
2023-01-01T13:22:36.599Z,5.50
2023-01-01T13:25:10.700Z,5.70
2023-01-01T13:28:03.786Z,5.53
2023-01-01T13:30:39.678Z,4.03
2023-01-01T13:33:27.224Z,3.50
2023-01-01T13:36:09.644Z,4.53
2023-01-01T13:38:56.793Z,3.70
2023-01-01T13:41:26.595Z,3.60
2023-01-01T13:44:11.102Z,4.00
2023-01-01T13:46:43.909Z,4.03
2023-01-01T13:49:37.465Z,3.40
2023-01-01T13:52:19.216Z,3.90
2023-01-01T13:55:30.437Z,4.23
2023-01-01T13:58:15.064Z,3.90
2023-01-01T14:00:53.741Z,4.27
2023-01-01T14:03:21.509Z,3.80
2023-01-01T14:05:55.492Z,4.00
2023-01-01T14:08:36.747Z,3.90
2023-01-01T14:11:21.470Z,3.60
2023-01-01T14:13:48.532Z,4.10
2023-01-01T14:16:16.185Z,4.60
2023-01-01T14:18:46.583Z,4.50
2023-01-01T14:21:25.604Z,4.40
2023-01-01T14:24:02.258Z,4.20
2023-01-01T14:26:30.871Z,5.23
2023-01-01T14:28:59.546Z,6.17
2023-01-01T14:31:34.309Z,5.63
2023-01-01T14:34:02.384Z,5.37
2023-01-01T14:36:31.507Z,5.10
2023-01-01T14:39:03.170Z,5.50
2023-01-01T14:41:33.031Z,6.30
2023-01-01T14:44:15.283Z,8.53
2023-01-01T14:46:48.449Z,8.67
2023-01-01T14:49:27.369Z,9.33
2023-01-01T14:52:03.683Z,8.07
2023-01-01T14:54:36.135Z,9.07
2023-01-01T14:57:03.134Z,8.67
2023-01-01T14:59:34.100Z,8.03
2023-01-01T15:02:02.346Z,6.80
2023-01-01T15:04:29.820Z,7.83
2023-01-01T15:07:00.966Z,9.30
2023-01-01T15:09:28.738Z,8.60
2023-01-01T15:11:56.722Z,8.07
2023-01-01T15:14:42.528Z,7.90
2023-01-01T15:17:11.819Z,8.37
2023-01-01T15:19:41.407Z,8.40
2023-01-01T15:22:29.473Z,8.00
2023-01-01T15:24:56.372Z,6.13
2023-01-01T15:27:32.917Z,6.23
2023-01-01T15:30:00.313Z,7.13
2023-01-01T15:32:29.973Z,5.47
2023-01-01T15:34:58.760Z,6.27
2023-01-01T15:37:47.177Z,5.50
2023-01-01T15:40:13.910Z,6.43
2023-01-01T15:42:58.567Z,7.07
2023-01-01T15:45:30.312Z,6.30
2023-01-01T15:48:17.791Z,6.27
2023-01-01T15:50:50.189Z,7.17
2023-01-01T15:53:23.401Z,6.13
2023-01-01T15:56:11.272Z,6.67
2023-01-01T15:58:42.825Z,5.90
2023-01-01T16:01:13.242Z,6.30
2023-01-01T16:03:42.189Z,6.20
2023-01-01T16:06:16.798Z,7.07
2023-01-01T16:08:43.781Z,6.27
2023-01-01T16:11:10.492Z,7.77
2023-01-01T16:13:37.255Z,7.80
2023-01-01T16:16:04.690Z,6.77
2023-01-01T16:18:33.943Z,6.80
2023-01-01T16:21:02.723Z,6.13
2023-01-01T16:23:29.391Z,7.07
2023-01-01T16:25:56.091Z,6.90
2023-01-01T16:28:23.663Z,6.73
2023-01-01T16:30:51.078Z,5.97
2023-01-01T16:33:20.152Z,7.60
2023-01-01T16:35:47.611Z,7.60
2023-01-01T16:38:14.475Z,6.93
2023-01-01T16:40:41.218Z,7.80
2023-01-01T16:43:16.595Z,7.50
2023-01-01T16:45:46.658Z,11.03
2023-01-01T16:48:13.430Z,11.83
2023-01-01T16:50:40.373Z,11.53
2023-01-01T16:53:07.059Z,12.87
2023-01-01T16:55:33.820Z,12.37
2023-01-01T16:58:29.570Z,13.27
2023-01-01T17:00:48.026Z,11.73
2023-01-01T17:03:15.254Z,11.90
2023-01-01T17:05:44.633Z,13.57
2023-01-01T17:08:11.939Z,12.70
2023-01-01T17:10:38.625Z,14.40
2023-01-01T17:13:05.382Z,13.10
2023-01-01T17:15:32.411Z,13.27
2023-01-01T17:17:59.491Z,11.67
2023-01-01T17:20:26.646Z,11.10
2023-01-01T17:22:53.442Z,10.70
2023-01-01T17:25:20.293Z,9.03
2023-01-01T17:27:47.012Z,8.87
2023-01-01T17:30:14.738Z,9.27
2023-01-01T17:32:41.673Z,9.43
2023-01-01T17:35:08.752Z,16.07
2023-01-01T17:37:35.608Z,16.33
2023-01-01T17:40:02.353Z,14.40
2023-01-01T17:42:29.535Z,15.97
2023-01-01T17:44:56.226Z,15.67
2023-01-01T17:47:25.510Z,16.40
2023-01-01T17:49:55.998Z,18.53
2023-01-01T17:52:22.684Z,16.17
2023-01-01T17:54:49.421Z,15.20
2023-01-01T17:57:17.073Z,14.90
2023-01-01T17:59:44.333Z,13.63
2023-01-01T18:02:14.826Z,13.77
2023-01-01T18:04:41.770Z,13.03
2023-01-01T18:07:08.620Z,13.93
2023-01-01T18:09:38.048Z,13.40
2023-01-01T18:12:05.847Z,14.73
2023-01-01T18:14:32.510Z,16.20
2023-01-01T18:16:59.239Z,14.60
2023-01-01T18:19:27.652Z,16.40
2023-01-01T18:21:54.449Z,15.13
2023-01-01T18:24:22.195Z,13.57
2023-01-01T18:26:48.930Z,14.07
2023-01-01T18:29:15.731Z,14.93
2023-01-01T18:31:42.467Z,13.73
2023-01-01T18:34:11.947Z,14.70
2023-01-01T18:36:39.511Z,13.23
2023-01-01T18:39:27.338Z,17.60
2023-01-01T18:42:32.578Z,17.27
2023-01-01T18:45:15.305Z,15.43
2023-01-01T18:47:42.705Z,16.87
2023-01-01T18:50:27.417Z,13.50
2023-01-01T18:53:07.076Z,11.20
2023-01-01T18:55:33.787Z,11.73
2023-01-01T18:58:14.945Z,10.07
2023-01-01T19:00:41.934Z,9.47
2023-01-01T19:03:15.262Z,8.40
2023-01-01T19:05:42.001Z,7.83
2023-01-01T19:08:08.694Z,7.20
2023-01-01T19:10:40.671Z,7.47
2023-01-01T19:13:16.188Z,9.77
2023-01-01T19:16:02.660Z,8.13
2023-01-01T19:18:31.746Z,6.50
2023-01-01T19:21:18.477Z,8.90
2023-01-01T19:23:56.690Z,9.80
2023-01-01T19:26:29.784Z,9.13
2023-01-01T19:28:59.828Z,10.67
2023-01-01T19:31:26.585Z,10.83
2023-01-01T19:33:53.427Z,10.30
2023-01-01T19:36:20.340Z,9.00
2023-01-01T19:38:47.056Z,12.20
2023-01-01T19:41:13.808Z,11.13
2023-01-01T19:43:40.485Z,8.70
2023-01-01T19:46:07.216Z,8.53
2023-01-01T19:48:34.843Z,7.60
2023-01-01T19:51:01.568Z,6.90
2023-01-01T19:53:28.219Z,6.77
2023-01-01T19:55:55.012Z,6.80
2023-01-01T19:58:23.054Z,6.13
2023-01-01T20:00:50.777Z,6.87
2023-01-01T20:06:05.255Z,7.00
2023-01-01T20:08:32.436Z,6.60
2023-01-01T20:11:01.858Z,6.63
2023-01-01T20:13:28.654Z,6.60
2023-01-01T20:15:55.508Z,10.53
2023-01-01T20:18:22.273Z,8.60
2023-01-01T20:21:07.776Z,6.50
2023-01-01T20:23:34.528Z,6.50
2023-01-01T20:26:01.358Z,6.97
2023-01-01T20:28:46.983Z,5.00
2023-01-01T20:31:13.764Z,5.67
2023-01-01T20:33:40.451Z,6.57
2023-01-01T20:36:26.023Z,6.63
2023-01-01T20:38:52.726Z,7.10
2023-01-01T20:41:25.161Z,6.17
2023-01-01T20:43:58.861Z,6.30
2023-01-01T20:46:25.819Z,5.80
2023-01-01T20:48:57.010Z,5.53
2023-01-01T20:51:23.879Z,5.90
2023-01-01T20:53:50.569Z,4.93
2023-01-01T20:56:17.426Z,4.87
2023-01-01T20:58:50.063Z,4.27
2023-01-01T21:01:25.207Z,5.07
2023-01-01T21:03:51.918Z,5.20
2023-01-01T21:06:24.099Z,5.23
2023-01-01T21:08:51.856Z,5.13
2023-01-01T21:11:18.927Z,5.00
2023-01-01T21:13:45.922Z,4.30
2023-01-01T21:16:30.474Z,5.20
2023-01-01T21:18:58.417Z,4.20
2023-01-01T21:21:41.909Z,4.83
2023-01-01T21:24:28.204Z,5.07
2023-01-01T21:27:17.883Z,5.40
2023-01-01T21:29:47.149Z,4.73
2023-01-01T21:32:21.660Z,4.30
2023-01-01T21:34:50.496Z,4.63
2023-01-01T21:37:47.943Z,5.47
2023-01-01T21:40:34.538Z,5.33
2023-01-01T21:43:20.090Z,4.80
2023-01-01T21:45:47.573Z,5.30
2023-01-01T21:48:41.279Z,5.83
2023-01-01T21:51:37.565Z,6.17
2023-01-01T21:54:10.397Z,5.30
2023-01-01T21:56:39.279Z,5.43
2023-01-01T21:59:27.213Z,5.30
2023-01-01T22:02:06.485Z,4.17
2023-01-01T22:04:48.252Z,4.90
2023-01-01T22:10:23.954Z,4.03
2023-01-01T22:12:55.875Z,4.87
2023-01-01T22:15:30.462Z,4.10
2023-01-01T22:18:09.243Z,3.90
2023-01-01T22:20:38.669Z,3.90
2023-01-01T22:23:41.252Z,4.17
2023-01-01T22:26:22.426Z,3.90
2023-01-01T22:29:01.879Z,4.50
2023-01-01T22:31:33.525Z,4.13
2023-01-01T22:34:03.453Z,5.17
2023-01-01T22:36:37.766Z,5.17
2023-01-01T22:39:15.814Z,4.77
2023-01-01T22:41:42.976Z,5.13
2023-01-01T22:44:11.310Z,4.97
2023-01-01T22:46:40.754Z,5.10
2023-01-01T22:49:23.825Z,4.97
2023-01-01T22:51:57.112Z,5.00
2023-01-01T22:54:23.841Z,5.93
2023-01-01T22:56:50.613Z,4.77
2023-01-01T22:59:17.309Z,5.13
2023-01-01T23:01:44.127Z,5.10
2023-01-01T23:04:10.845Z,4.97
2023-01-01T23:06:37.956Z,5.73
2023-01-01T23:09:05.768Z,5.33
2023-01-01T23:11:32.536Z,4.77
2023-01-01T23:14:17.960Z,4.33
2023-01-01T23:16:44.629Z,4.60
2023-01-01T23:19:11.330Z,5.43
2023-01-01T23:21:42.302Z,4.93
2023-01-01T23:24:20.864Z,5.30
2023-01-01T23:26:49.174Z,5.43
2023-01-01T23:29:16.518Z,5.77
2023-01-01T23:31:44.093Z,4.53
2023-01-01T23:34:11.707Z,4.67
2023-01-01T23:36:38.965Z,4.90
2023-01-01T23:39:06.596Z,5.10
2023-01-01T23:41:33.342Z,5.17
2023-01-01T23:44:00.254Z,5.40
2023-01-01T23:46:27.063Z,4.80
2023-01-01T23:48:54.537Z,5.53
2023-01-01T23:51:21.561Z,5.23
2023-01-01T23:53:48.224Z,5.60
2023-01-01T23:56:15.150Z,5.43
2023-01-01T23:58:41.911Z,6.37
